Time;durP1;ratioP1;P1;durP2;ratioP2;P2;SDS_P1;SDS_P2;PMS_P1;PMS_P2;Temp;Humidity;BMP_temperature;BMP_pressure;BME280_temperature;BME280_humidity;BME280_pressure;Samples;Min_cycle;Max_cycle;Signal;HPM_P1;HPM_P2
2024/02/15 00:01:42;;;;;;;2.70;2.50;;;;;;;19.48;51.21;97943.94;5050595;28;20585;-25
2024/02/15 00:04:10;;;;;;;2.53;2.33;;;;;;;19.48;50.99;97943.94;5051674;28;20201;-26
2024/02/15 00:06:37;;;;;;;2.50;2.30;;;;;;;19.48;51.23;97946.47;5049236;28;20255;-25
2024/02/15 00:09:04;;;;;;;2.97;2.40;;;;;;;19.49;51.20;97949.91;5043905;28;20679;-25
2024/02/15 00:11:32;;;;;;;2.47;2.27;;;;;;;19.48;51.13;97951.59;5047997;28;20259;-30
2024/02/15 00:13:59;;;;;;;2.50;2.30;;;;;;;19.46;50.94;97948.13;5051294;28;20753;-25
2024/02/15 00:16:27;;;;;;;2.73;2.53;;;;;;;19.47;50.79;97960.03;5048252;28;20449;-25
2024/02/15 00:18:55;;;;;;;2.77;2.40;;;;;;;19.47;51.07;97956.63;5052179;28;20193;-25
2024/02/15 00:21:22;;;;;;;2.80;2.60;;;;;;;19.44;51.31;97952.25;5045455;28;20338;-26
2024/02/15 00:23:49;;;;;;;3.10;2.50;;;;;;;19.43;51.08;97960.72;5039952;28;20201;-25
2024/02/15 00:26:16;;;;;;;2.70;2.50;;;;;;;19.44;51.19;97964.13;5050737;28;20201;-26
2024/02/15 00:28:42;;;;;;;2.40;2.20;;;;;;;19.44;51.39;97972.66;5046078;28;20224;-25
2024/02/15 00:31:09;;;;;;;2.73;2.53;;;;;;;19.44;51.11;97970.09;5048164;28;20229;-25
2024/02/15 00:33:36;;;;;;;2.40;2.20;;;;;;;19.46;51.15;97960.84;5048846;28;20690;-25
2024/02/15 00:36:04;;;;;;;2.60;2.40;;;;;;;19.49;51.22;97972.84;5050753;28;20291;-30
2024/02/15 00:38:33;;;;;;;2.40;2.20;;;;;;;19.47;51.08;97967.69;5050261;28;20201;-25
2024/02/15 00:41:00;;;;;;;2.50;2.30;;;;;;;19.50;51.05;97974.59;5050972;28;20601;-28
2024/02/15 00:43:27;;;;;;;2.50;2.30;;;;;;;19.46;51.15;97965.97;5047294;28;20198;-26
2024/02/15 00:45:54;;;;;;;2.77;2.57;;;;;;;19.48;51.15;97966.88;5051080;28;20289;-25
2024/02/15 00:48:20;;;;;;;2.40;2.20;;;;;;;19.48;51.05;97964.31;5048550;28;20290;-26
2024/02/15 00:50:48;;;;;;;2.40;2.20;;;;;;;19.49;51.00;97965.22;5050391;28;20569;-25
2024/02/15 00:53:16;;;;;;;2.50;2.30;;;;;;;19.49;51.23;97976.28;5050694;28;20288;-26
2024/02/15 00:55:43;;;;;;;2.50;2.30;;;;;;;19.49;51.20;97968.66;5050514;28;20241;-26
2024/02/15 00:58:09;;;;;;;2.60;2.07;;;;;;;19.45;51.16;97966.75;5050533;28;20251;-25
2024/02/15 01:00:36;;;;;;;2.40;2.20;;;;;;;19.43;51.19;97968.38;5049971;28;20286;-25
2024/02/15 01:03:04;;;;;;;2.90;2.33;;;;;;;19.41;51.21;97958.88;5050314;28;20350;-25
2024/02/15 01:05:30;;;;;;;4.00;2.33;;;;;;;19.43;51.17;97959.84;5032572;28;20652;-25
2024/02/15 01:07:57;;;;;;;2.27;2.07;;;;;;;19.44;51.13;97959.91;5046051;28;20225;-30
2024/02/15 01:10:24;;;;;;;2.40;2.20;;;;;;;19.45;50.99;97958.25;5046840;28;20288;-25
2024/02/15 01:12:51;;;;;;;2.37;2.17;;;;;;;19.44;51.09;97954.81;5049962;28;20197;-25
2024/02/15 01:15:19;;;;;;;2.57;2.37;;;;;;;19.47;51.07;97954.06;5050346;28;20217;-27
2024/02/15 01:17:46;;;;;;;2.47;2.27;;;;;;;19.46;51.02;97955.75;5042478;28;20252;-25
2024/02/15 01:20:13;;;;;;;2.27;2.07;;;;;;;19.47;51.17;97957.50;5056165;28;20220;-25
2024/02/15 01:22:40;;;;;;;2.57;2.37;;;;;;;19.49;51.00;97960.13;5054961;28;20539;-25
2024/02/15 01:25:06;;;;;;;2.40;2.20;;;;;;;19.49;51.08;97953.34;5047883;28;20700;-32
2024/02/15 01:27:33;;;;;;;2.40;2.20;;;;;;;19.48;51.05;97956.69;5053695;28;20259;-25
2024/02/15 01:30:00;;;;;;;2.43;2.23;;;;;;;19.48;50.81;97949.03;5056849;28;20670;-26
2024/02/15 01:32:27;;;;;;;2.33;2.13;;;;;;;19.50;51.21;97949.09;5057212;28;20250;-25
2024/02/15 01:34:54;;;;;;;3.23;2.20;;;;;;;19.45;51.24;97946.34;5029703;28;20668;-25
2024/02/15 01:37:21;;;;;;;2.43;2.23;;;;;;;19.44;50.84;97941.19;5043400;28;20200;-25
2024/02/15 01:39:48;;;;;;;2.13;1.93;;;;;;;19.42;51.19;97945.38;5053597;28;20220;-25
2024/02/15 01:42:15;;;;;;;2.00;1.90;;;;;;;19.43;51.11;97942.00;5036121;28;20241;-25
2024/02/15 01:44:43;;;;;;;2.30;2.10;;;;;;;19.43;50.94;97945.44;5048554;28;20596;-25
2024/02/15 01:47:10;;;;;;;2.20;2.00;;;;;;;19.46;51.27;97944.69;5049615;28;20271;-25
2024/02/15 01:49:37;;;;;;;2.60;2.40;;;;;;;19.46;51.23;97940.47;5036291;28;20262;-26
2024/02/15 01:52:04;;;;;;;2.10;2.00;;;;;;;19.47;51.25;97931.13;5045090;28;20209;-25
2024/02/15 01:54:31;;;;;;;2.40;2.10;;;;;;;19.42;51.10;97922.44;5063695;28;20204;-27
2024/02/15 01:56:58;;;;;;;1.90;1.80;;;;;;;19.48;51.07;97941.38;5031439;28;20244;-25
2024/02/15 01:59:24;;;;;;;2.20;2.00;;;;;;;19.48;51.03;97943.94;5050015;28;20668;-26
2024/02/15 02:01:51;;;;;;;2.03;1.93;;;;;;;19.49;50.99;97942.28;5041772;28;21072;-25
2024/02/15 02:04:17;;;;;;;1.87;1.77;;;;;;;19.50;51.12;97936.34;5019903;28;20664;-25
2024/02/15 02:06:44;;;;;;;2.50;2.30;;;;;;;19.49;51.01;97929.53;5042777;28;20205;-28
2024/02/15 02:09:14;;;;;;;2.30;2.10;;;;;;;19.50;51.02;97933.81;5050972;28;20313;-25
2024/02/15 02:11:42;;;;;;;2.53;2.30;;;;;;;19.47;51.16;97926.03;5043596;28;20239;-25
2024/02/15 02:14:08;;;;;;;2.43;2.10;;;;;;;19.44;51.22;97921.69;5006961;28;20229;-25
2024/02/15 02:16:35;;;;;;;2.23;2.03;;;;;;;19.42;51.27;97928.38;5029704;28;20204;-25
2024/02/15 02:19:02;;;;;;;2.07;1.97;;;;;;;19.42;50.88;97924.97;5049853;28;20280;-25
2024/02/15 02:21:28;;;;;;;2.00;1.90;;;;;;;19.44;51.30;97939.53;5053996;28;20362;-26
2024/02/15 02:23:58;;;;;;;2.37;2.13;;;;;;;19.44;51.12;97933.53;5052604;28;20205;-25
2024/02/15 02:26:25;;;;;;;2.20;1.97;;;;;;;19.45;51.13;97933.59;5046000;28;20273;-29
2024/02/15 02:28:55;;;;;;;2.30;2.10;;;;;;;19.46;51.11;97942.13;5051009;28;20221;-25
2024/02/15 02:31:21;;;;;;;2.37;2.17;;;;;;;19.45;51.10;97931.06;5045547;28;20279;-26
2024/02/15 02:33:52;;;;;;;2.40;2.20;;;;;;;19.44;51.01;97926.78;5049676;28;20205;-25
2024/02/15 02:36:19;;;;;;;2.27;2.10;;;;;;;19.46;51.03;97921.75;5045126;28;20212;-25
2024/02/15 02:38:48;;;;;;;2.30;2.10;;;;;;;19.46;51.24;97914.09;5058179;28;20247;-25
2024/02/15 02:41:14;;;;;;;2.30;2.10;;;;;;;19.46;51.19;97919.19;5052091;28;20256;-25
2024/02/15 02:43:41;;;;;;;2.10;1.90;;;;;;;19.44;50.92;97916.56;5052067;28;20259;-25
2024/02/15 02:46:11;;;;;;;2.00;1.90;;;;;;;19.46;51.08;97920.06;5046659;28;20314;-28
2024/02/15 02:48:38;;;;;;;2.10;2.00;;;;;;;19.45;51.16;97915.75;5039264;28;20267;-25
2024/02/15 02:51:06;;;;;;;2.37;2.13;;;;;;;19.38;51.23;97910.34;5039372;28;20220;-25
2024/02/15 02:53:33;;;;;;;2.13;2.00;;;;;;;19.40;51.10;97914.72;5049048;28;20251;-28
2024/02/15 02:55:59;;;;;;;2.10;1.90;;;;;;;19.39;51.15;97914.66;5041512;28;20593;-25
2024/02/15 02:58:26;;;;;;;1.97;1.87;;;;;;;19.41;51.45;97919.00;5019453;28;20202;-25
2024/02/15 03:00:52;;;;;;;2.07;1.87;;;;;;;19.43;51.11;97921.59;5048819;28;20229;-25
2024/02/15 03:03:19;;;;;;;2.27;2.00;;;;;;;19.44;51.11;97924.22;5043766;28;20290;-25
2024/02/15 03:05:46;;;;;;;2.20;2.00;;;;;;;19.45;51.12;97925.09;5050467;28;20258;-34
2024/02/15 03:08:12;;;;;;;1.90;1.80;;;;;;;19.45;50.98;97920.84;5034290;28;20218;-26
2024/02/15 03:10:40;;;;;;;2.03;1.90;;;;;;;19.46;51.29;97921.75;5037988;28;20309;-31
2024/02/15 03:13:10;;;;;;;2.03;1.93;;;;;;;19.46;51.17;97921.75;5047438;28;20198;-25
2024/02/15 03:15:36;;;;;;;1.97;1.87;;;;;;;19.46;51.10;97925.19;5036745;28;20304;-25
2024/02/15 03:18:09;;;;;;;2.17;2.00;;;;;;;19.47;51.06;97915.81;5047234;28;20205;-25
2024/02/15 03:20:39;;;;;;;2.10;1.90;;;;;;;19.47;50.96;97918.38;5045189;28;20263;-25
2024/02/15 03:23:05;;;;;;;2.17;1.97;;;;;;;19.49;51.13;97924.44;5041056;28;20244;-29
2024/02/15 03:25:34;;;;;;;2.07;1.97;;;;;;;19.47;51.18;97921.81;5050412;28;20683;-25
2024/02/15 03:28:03;;;;;;;1.97;1.87;;;;;;;19.43;51.19;97916.50;5050856;28;20224;-25
2024/02/15 03:30:31;;;;;;;2.50;2.30;;;;;;;19.41;51.28;97918.09;5050845;28;20224;-25
2024/02/15 03:32:58;;;;;;;1.83;1.73;;;;;;;19.40;51.13;97912.16;5050236;28;20223;-26
2024/02/15 03:35:26;;;;;;;1.90;1.80;;;;;;;19.41;51.20;97913.91;5048629;28;20574;-25
2024/02/15 03:37:52;;;;;;;2.27;2.10;;;;;;;19.42;51.06;97910.53;5047192;28;20656;-25
2024/02/15 03:40:20;;;;;;;2.10;1.90;;;;;;;19.44;50.99;97916.56;5050196;28;20236;-25
2024/02/15 03:42:47;;;;;;;1.93;1.80;;;;;;;19.45;51.24;97918.31;5043111;28;20239;-25
2024/02/15 03:45:13;;;;;;;1.90;1.80;;;;;;;19.43;51.39;97916.50;5038336;28;20205;-25
2024/02/15 03:47:40;;;;;;;2.30;2.10;;;;;;;19.44;51.09;97915.69;5047820;28;20204;-25
2024/02/15 03:50:11;;;;;;;2.00;1.90;;;;;;;19.45;51.18;97915.75;5051032;28;20221;-25
2024/02/15 03:52:38;;;;;;;1.97;1.87;;;;;;;19.42;51.12;97914.78;5050045;28;20209;-26
2024/02/15 03:55:07;;;;;;;1.80;1.70;;;;;;;19.46;51.02;97924.28;5050538;28;20205;-26
2024/02/15 03:57:33;;;;;;;2.00;1.87;;;;;;;19.46;50.93;97921.75;5031043;28;20219;-25
2024/02/15 04:00:00;;;;;;;1.93;1.83;;;;;;;19.46;51.00;97925.19;5047688;28;20286;-25
2024/02/15 04:02:28;;;;;;;2.00;1.90;;;;;;;19.47;51.17;97924.34;5050888;28;20208;-34
2024/02/15 04:04:55;;;;;;;1.80;1.70;;;;;;;19.41;51.31;97928.31;5042015;28;20308;-25
2024/02/15 04:07:22;;;;;;;2.20;2.00;;;;;;;19.40;51.25;97932.56;5042355;28;20691;-25
2024/02/15 04:09:48;;;;;;;2.00;1.90;;;;;;;19.41;51.01;97934.28;5049870;28;20244;-25
2024/02/15 04:12:16;;;;;;;2.17;2.07;;;;;;;19.41;51.34;97929.19;5051043;28;20208;-28
2024/02/15 04:14:45;;;;;;;2.63;2.00;;;;;;;19.41;51.06;97924.09;5046254;28;20299;-25
2024/02/15 04:17:16;;;;;;;1.90;1.80;;;;;;;19.43;51.21;97929.25;5042040;28;20224;-27
2024/02/15 04:19:46;;;;;;;1.90;1.80;;;;;;;19.43;51.05;97932.69;5046894;28;20291;-25
2024/02/15 04:22:16;;;;;;;1.80;1.70;;;;;;;19.44;51.19;97934.41;5040674;28;20208;-27
2024/02/15 04:24:45;;;;;;;2.10;1.80;;;;;;;19.43;51.02;97927.59;5045703;28;21020;-25
2024/02/15 04:27:13;;;;;;;1.70;1.60;;;;;;;19.43;51.20;97925.03;5034193;28;20237;-28
2024/02/15 04:29:41;;;;;;;2.00;1.90;;;;;;;19.45;51.07;97932.75;5042604;28;20226;-26
2024/02/15 04:32:11;;;;;;;2.00;1.90;;;;;;;19.44;51.13;97925.88;5051766;28;20240;-31
2024/02/15 04:34:38;;;;;;;1.87;1.70;;;;;;;19.45;51.16;97920.84;5053128;28;20267;-26
2024/02/15 04:37:08;;;;;;;1.80;1.70;;;;;;;19.46;50.97;97921.75;5043404;28;20210;-25
2024/02/15 04:39:35;;;;;;;1.90;1.80;;;;;;;19.46;51.02;97926.84;5053370;28;20204;-26
2024/02/15 04:42:03;;;;;;;1.80;1.70;;;;;;;19.39;51.34;97909.53;5044801;28;20208;-25
2024/02/15 04:44:29;;;;;;;2.20;2.00;;;;;;;19.41;51.12;97920.66;5015157;28;20622;-25
2024/02/15 04:46:56;;;;;;;1.80;1.70;;;;;;;19.41;51.21;97920.66;5046816;28;20201;-25
2024/02/15 04:49:24;;;;;;;1.90;1.80;;;;;;;19.40;51.14;97912.16;5049540;28;20224;-25
2024/02/15 04:51:51;;;;;;;1.87;1.70;;;;;;;19.39;51.38;97910.41;5044350;28;20749;-25
2024/02/15 04:54:18;;;;;;;1.87;1.77;;;;;;;19.39;50.97;97907.84;5040668;28;20202;-25
2024/02/15 04:56:45;;;;;;;2.00;1.90;;;;;;;19.43;51.01;97917.41;5053810;28;20253;-25
2024/02/15 04:59:15;;;;;;;1.90;1.80;;;;;;;19.44;51.13;97916.56;5042938;28;20201;-25
2024/02/15 05:01:45;;;;;;;2.00;1.90;;;;;;;19.44;51.09;97911.47;5050511;28;20711;-25
2024/02/15 05:04:13;;;;;;;2.13;1.93;;;;;;;19.48;50.99;97918.44;5042170;28;20617;-25
2024/02/15 05:06:40;;;;;;;1.80;1.70;;;;;;;19.48;51.07;97913.34;5049238;28;20205;-25
2024/02/15 05:09:07;;;;;;;1.93;1.83;;;;;;;19.48;50.98;97915.91;5054399;28;20246;-25
2024/02/15 05:11:37;;;;;;;2.17;1.97;;;;;;;19.49;51.06;97916.78;5045452;28;20229;-26
2024/02/15 05:14:07;;;;;;;1.80;1.70;;;;;;;19.50;50.85;97899.00;5049620;28;20255;-25
2024/02/15 05:16:34;;;;;;;1.93;1.83;;;;;;;19.49;51.00;97894.72;5040893;28;20233;-25
2024/02/15 05:19:00;;;;;;;1.93;1.77;;;;;;;19.47;50.93;97898.88;5047365;28;20200;-25
2024/02/15 05:21:27;;;;;;;1.70;1.60;;;;;;;19.45;51.28;97897.06;5052225;28;20742;-25
2024/02/15 05:23:55;;;;;;;1.97;1.87;;;;;;;19.43;51.16;97894.44;5047861;28;20274;-28
2024/02/15 05:26:23;;;;;;;1.87;1.77;;;;;;;19.45;51.21;97899.63;5049232;28;20205;-25
2024/02/15 05:28:49;;;;;;;1.90;1.80;;;;;;;19.46;51.07;97898.81;5053907;28;20314;-25
2024/02/15 05:31:20;;;;;;;1.80;1.70;;;;;;;19.47;51.16;97903.09;5048721;28;20253;-25
2024/02/15 05:33:47;;;;;;;1.90;1.70;;;;;;;19.48;51.04;97905.69;5051161;28;20200;-25
2024/02/15 05:36:14;;;;;;;1.73;1.63;;;;;;;19.44;51.14;97897.84;5042333;28;20665;-25
2024/02/15 05:38:41;;;;;;;1.77;1.67;;;;;;;19.49;50.89;97920.22;5044275;28;20197;-25
2024/02/15 05:41:08;;;;;;;2.10;2.00;;;;;;;19.50;50.91;97910.88;5051233;28;20328;-25
2024/02/15 05:43:38;;;;;;;1.80;1.70;;;;;;;19.51;50.98;97920.28;5049094;28;20460;-25
2024/02/15 05:46:06;;;;;;;1.90;1.80;;;;;;;19.50;50.95;97910.88;5051953;28;20247;-25
2024/02/15 05:48:36;;;;;;;1.87;1.77;;;;;;;19.50;50.99;97914.28;5047172;28;20235;-25
2024/02/15 05:51:03;;;;;;;2.13;1.90;;;;;;;19.49;50.89;97909.13;5046853;28;20233;-25
2024/02/15 05:53:30;;;;;;;1.90;1.80;;;;;;;19.51;50.88;97917.72;5049976;28;20617;-25
2024/02/15 05:56:00;;;;;;;1.90;1.80;;;;;;;19.47;50.99;97919.25;5029193;28;20213;-25
2024/02/15 05:58:27;;;;;;;1.70;1.60;;;;;;;19.44;51.00;97918.25;5044681;28;20202;-25
2024/02/15 06:00:54;;;;;;;2.03;1.93;;;;;;;19.45;51.18;97925.09;5047357;28;20228;-25
2024/02/15 06:03:22;;;;;;;2.30;2.10;;;;;;;19.41;51.05;97916.44;5057697;28;20630;-25
2024/02/15 06:05:49;;;;;;;2.60;2.40;;;;;;;19.45;51.00;97928.50;5050367;28;20220;-25
2024/02/15 06:08:16;;;;;;;3.33;3.03;;;;;;;19.44;50.61;97931.88;5051372;28;20212;-25
2024/02/15 06:10:43;;;;;;;3.57;3.27;;;;;;;19.48;50.89;97928.63;5046868;28;20312;-26
2024/02/15 06:13:10;;;;;;;3.17;2.87;;;;;;;19.46;50.61;97922.63;5054707;28;20676;-25
2024/02/15 06:15:36;;;;;;;4.97;3.10;;;;;;;19.45;50.88;97931.06;5047425;28;20205;-25
2024/02/15 06:18:09;;;;;;;3.17;2.80;;;;;;;19.48;50.79;97936.28;5047839;28;20208;-25
2024/02/15 06:20:38;;;;;;;3.30;3.00;;;;;;;19.47;50.82;97937.09;5052770;28;20220;-25
2024/02/15 06:23:07;;;;;;;2.70;2.50;;;;;;;19.47;50.83;97934.56;5046557;28;20215;-25
2024/02/15 06:25:37;;;;;;;3.40;3.10;;;;;;;19.47;50.84;97938.78;5045633;28;20280;-28
2024/02/15 06:28:13;;;;;;;3.37;3.03;;;;;;;19.46;50.79;97942.13;5050575;28;20201;-25
2024/02/15 06:41:41;;;;;;;2.90;2.70;;;;;;;19.45;51.24;97948.03;5040045;28;20217;-26
2024/02/15 06:44:07;;;;;;;4.37;2.80;;;;;;;19.46;49.86;97953.22;5048746;28;20289;-27
2024/02/15 06:46:34;;;;;;;3.33;2.73;;;;;;;19.46;50.56;97955.75;5049331;28;20201;-25
2024/02/15 06:49:01;;;;;;;3.10;2.80;;;;;;;19.48;50.68;97956.69;5052081;28;20255;-32
2024/02/15 06:51:28;;;;;;;3.40;3.10;;;;;;;19.50;50.72;97954.19;5050903;28;20323;-25
2024/02/15 06:53:55;;;;;;;3.50;3.00;;;;;;;19.54;50.39;97951.00;5050975;28;20660;-25
2024/02/15 06:56:23;;;;;;;3.67;3.37;;;;;;;19.55;49.98;97957.84;5050258;28;20664;-25
2024/02/15 06:58:50;;;;;;;13.77;3.43;;;;;;;19.59;49.94;97947.84;5042485;28;20213;-25
2024/02/15 07:01:17;;;;;;;4.13;3.73;;;;;;;19.60;49.76;97943.63;5047402;28;20221;-31
2024/02/15 07:03:47;;;;;;;3.90;3.20;;;;;;;19.54;50.04;97941.66;5042495;28;20528;-28
2024/02/15 07:06:14;;;;;;;3.87;3.40;;;;;;;19.48;50.05;97938.84;5048507;28;20252;-28
2024/02/15 07:08:41;;;;;;;5.00;3.40;;;;;;;19.49;50.02;97937.16;5057335;28;20204;-25
2024/02/15 07:11:10;;;;;;;3.77;2.97;;;;;;;19.48;50.44;97941.38;5044943;28;20278;-25
2024/02/15 07:13:37;;;;;;;3.23;2.93;;;;;;;19.48;50.21;97936.28;5047829;28;20298;-25
2024/02/15 07:16:07;;;;;;;3.83;3.13;;;;;;;19.47;50.30;97938.78;5042108;28;20209;-32
2024/02/15 07:18:34;;;;;;;3.80;3.10;;;;;;;19.49;50.48;97942.28;5046730;28;20326;-27
2024/02/15 07:21:03;;;;;;;3.10;2.80;;;;;;;19.49;49.95;97937.16;5047675;28;20794;-25
2024/02/15 07:23:30;;;;;;;3.33;3.00;;;;;;;19.49;50.38;97938.06;5031605;28;20679;-34
2024/02/15 07:25:56;;;;;;;3.63;3.33;;;;;;;19.49;50.48;97937.16;5044250;28;20205;-25
2024/02/15 07:28:23;;;;;;;3.30;3.00;;;;;;;19.47;50.52;97937.09;5047800;28;20201;-26
2024/02/15 07:30:54;;;;;;;5.53;3.20;;;;;;;19.49;50.66;97935.50;5048216;28;20278;-26
2024/02/15 07:33:22;;;;;;;3.20;3.00;;;;;;;19.49;50.56;97937.16;5049578;28;20236;-25
2024/02/15 07:35:53;;;;;;;3.23;2.93;;;;;;;19.47;50.58;97936.22;5021861;28;20293;-31
2024/02/15 07:38:22;;;;;;;3.37;2.70;;;;;;;19.44;50.60;97934.41;5047750;28;20599;-25
2024/02/15 07:40:49;;;;;;;2.73;2.53;;;;;;;19.44;50.79;97939.53;5048315;28;20647;-26
2024/02/15 07:43:16;;;;;;;3.40;2.83;;;;;;;19.45;50.79;97935.31;5048210;28;20275;-26
2024/02/15 07:45:43;;;;;;;3.07;2.87;;;;;;;19.44;50.67;97944.63;5047717;28;20693;-27
2024/02/15 07:48:09;;;;;;;3.10;2.80;;;;;;;19.45;50.79;97935.31;5040918;28;20280;-25
2024/02/15 07:50:37;;;;;;;3.23;2.93;;;;;;;19.45;50.80;97938.69;5048405;28;20825;-31
2024/02/15 07:53:08;;;;;;;5.00;3.13;;;;;;;19.46;50.76;97948.13;5044238;28;20287;-26
2024/02/15 07:55:34;;;;;;;2.67;2.47;;;;;;;19.47;50.67;97946.41;5046622;28;20201;-27
2024/02/15 07:58:01;;;;;;;2.80;2.60;;;;;;;19.47;50.71;97936.22;5048599;28;20213;-25
2024/02/15 08:00:29;;;;;;;3.27;3.03;;;;;;;19.48;50.58;97943.09;5046566;28;20239;-27
2024/02/15 08:02:59;;;;;;;2.80;2.60;;;;;;;19.47;50.58;97936.22;5041457;28;20208;-25
2024/02/15 08:05:26;;;;;;;2.90;2.70;;;;;;;19.48;50.65;97932.88;5047319;28;20711;-25
2024/02/15 08:07:57;;;;;;;3.20;2.80;;;;;;;19.47;50.51;97939.66;5041295;28;20589;-31
2024/02/15 08:10:25;;;;;;;3.00;2.70;;;;;;;19.47;50.80;97928.56;5041511;28;20256;-25
2024/02/15 08:12:52;;;;;;;4.67;2.97;;;;;;;19.44;50.66;97939.53;5046404;28;20208;-25
2024/02/15 08:15:19;;;;;;;2.93;2.60;;;;;;;19.45;50.94;97935.31;5048164;28;20250;-28
2024/02/15 08:17:46;;;;;;;2.77;2.57;;;;;;;19.45;50.80;97932.75;5044552;28;20672;-25
2024/02/15 08:20:14;;;;;;;2.70;2.50;;;;;;;19.42;50.74;97930.06;5044807;28;20221;-26
2024/02/15 08:22:40;;;;;;;2.80;2.60;;;;;;;19.46;50.75;97922.63;5024098;28;20205;-25
2024/02/15 08:25:10;;;;;;;3.20;2.50;;;;;;;19.46;50.77;97921.75;5048231;28;20626;-28
2024/02/15 08:27:40;;;;;;;2.83;2.60;;;;;;;19.47;50.82;97920.94;5046683;28;20211;-25
2024/02/15 08:30:11;;;;;;;2.73;2.53;;;;;;;19.48;50.86;97921.00;5052022;28;20228;-26
2024/02/15 08:32:39;;;;;;;4.10;2.93;;;;;;;19.49;50.74;97916.78;5023641;28;20208;-25
2024/02/15 08:35:07;;;;;;;2.70;2.50;;;;;;;19.49;50.78;97910.00;5047106;28;20695;-25
2024/02/15 08:37:38;;;;;;;2.80;2.60;;;;;;;19.49;50.67;97910.00;5040887;28;20209;-26
2024/02/15 08:40:11;;;;;;;3.70;2.40;;;;;;;19.49;50.74;97904.03;5040492;28;20229;-29
2024/02/15 08:42:41;;;;;;;2.60;2.40;;;;;;;19.47;50.72;97901.41;5044040;28;20250;-25
2024/02/15 08:45:08;;;;;;;2.40;2.20;;;;;;;19.45;50.89;97897.91;5058133;28;20502;-25
2024/02/15 08:47:39;;;;;;;3.07;2.87;;;;;;;19.45;50.77;97914.91;5024140;28;20656;-25
2024/02/15 08:50:09;;;;;;;2.80;2.60;;;;;;;19.45;50.73;97914.91;5051587;28;20260;-28
2024/02/15 08:52:39;;;;;;;2.63;2.43;;;;;;;19.45;50.73;97914.91;5044192;28;20579;-25
2024/02/15 08:55:09;;;;;;;2.50;2.30;;;;;;;19.47;50.74;97915.81;5045206;28;20587;-25
2024/02/15 08:57:37;;;;;;;3.43;2.87;;;;;;;19.50;50.30;97915.97;5047728;28;20291;-25
2024/02/15 09:00:13;;;;;;;3.17;2.90;;;;;;;19.51;50.29;97912.63;5045074;28;20235;-31
2024/02/15 09:02:40;;;;;;;3.13;2.70;;;;;;;19.49;50.50;97910.00;5047659;28;20589;-40
2024/02/15 09:05:07;;;;;;;3.43;3.03;;;;;;;19.48;50.50;97905.69;5047928;28;20218;-26
2024/02/15 09:07:33;;;;;;;2.80;2.60;;;;;;;19.48;50.54;97903.16;5041298;28;20213;-26
2024/02/15 09:10:00;;;;;;;3.00;2.70;;;;;;;19.44;50.38;97896.19;5035703;28;20334;-25
2024/02/15 09:12:27;;;;;;;3.37;2.70;;;;;;;19.49;50.64;97902.38;5048617;28;20241;-25
2024/02/15 09:14:54;;;;;;;2.73;2.53;;;;;;;19.48;50.73;97905.69;5046230;28;20286;-25
2024/02/15 09:17:20;;;;;;;3.13;2.70;;;;;;;19.45;50.72;97899.63;5040556;28;20197;-31
2024/02/15 09:19:49;;;;;;;2.70;2.50;;;;;;;19.45;50.79;97907.25;5043164;28;20233;-26
2024/02/15 09:22:16;;;;;;;2.50;2.30;;;;;;;19.37;50.31;97884.00;5046364;28;20568;-25
2024/02/15 09:24:42;;;;;;;2.60;2.40;;;;;;;19.44;50.60;97892.75;5045208;28;20709;-25
2024/02/15 09:27:11;;;;;;;3.03;2.60;;;;;;;19.46;50.70;97886.94;5047674;28;20213;-30
2024/02/15 09:29:40;;;;;;;3.13;2.63;;;;;;;19.46;50.63;97883.50;5040953;28;20603;-25
2024/02/15 09:32:07;;;;;;;2.80;2.60;;;;;;;19.47;50.61;97881.03;5048190;28;20217;-34
2024/02/15 09:34:33;;;;;;;2.80;2.60;;;;;;;19.49;50.61;97884.53;5030823;28;20228;-25
2024/02/15 09:37:00;;;;;;;2.60;2.40;;;;;;;19.49;50.61;97878.53;5054018;28;20259;-26
2024/02/15 09:39:27;;;;;;;2.77;2.50;;;;;;;19.47;50.01;97883.56;5049130;28;20283;-25
2024/02/15 09:41:58;;;;;;;2.70;2.50;;;;;;;19.49;50.56;97881.97;5044461;28;20208;-25
2024/02/15 09:44:27;;;;;;;2.90;2.33;;;;;;;19.49;50.63;97881.97;5047086;28;20205;-25
2024/02/15 09:47:04;;;;;;;2.67;2.47;;;;;;;19.51;50.62;97876.94;5048871;28;20217;-26
2024/02/15 09:49:39;;;;;;;3.07;2.77;;;;;;;19.52;50.77;97879.56;5057154;28;20735;-32
2024/02/15 09:52:11;;;;;;;2.77;2.43;;;;;;;19.54;50.70;97877.06;5042747;28;20683;-25
2024/02/15 09:54:43;;;;;;;2.80;2.60;;;;;;;19.57;50.60;97877.19;5030536;28;20251;-27
2024/02/15 09:57:13;;;;;;;3.10;2.60;;;;;;;19.55;50.57;97871.16;5032030;28;20300;-25
2024/02/15 09:59:40;;;;;;;3.70;3.00;;;;;;;19.51;50.53;97872.69;5048069;28;20205;-29
2024/02/15 10:02:10;;;;;;;2.60;2.40;;;;;;;19.48;50.53;97870.00;5043697;28;20213;-25
2024/02/15 10:04:39;;;;;;;2.93;2.47;;;;;;;19.46;50.68;97860.56;5023776;28;20201;-29
2024/02/15 10:07:08;;;;;;;2.87;2.53;;;;;;;19.46;50.66;97866.53;5054729;28;20219;-25
2024/02/15 10:09:36;;;;;;;2.53;2.33;;;;;;;19.46;50.57;97860.56;5048024;28;20220;-26
2024/02/15 10:12:06;;;;;;;2.50;2.30;;;;;;;19.48;50.74;97872.56;5048787;28;20204;-25
2024/02/15 10:14:33;;;;;;;2.73;2.27;;;;;;;19.50;50.52;97867.53;5031187;28;20209;-25
2024/02/15 10:17:06;;;;;;;3.30;2.40;;;;;;;19.51;50.64;97871.84;5030943;28;20266;-25
2024/02/15 10:19:34;;;;;;;2.77;2.57;;;;;;;19.52;50.78;97873.56;5048488;28;20779;-25
2024/02/15 10:22:08;;;;;;;2.73;2.30;;;;;;;19.54;50.47;97861.78;5047732;28;20369;-28
2024/02/15 10:24:35;;;;;;;3.00;2.20;;;;;;;19.51;50.63;97856.53;5048892;28;20255;-25
2024/02/15 10:27:10;;;;;;;2.23;2.13;;;;;;;19.54;50.58;97856.69;5029056;28;20255;-34
2024/02/15 10:29:39;;;;;;;2.63;2.43;;;;;;;19.49;50.72;97843.75;5048915;28;20689;-27
2024/02/15 10:32:10;;;;;;;2.50;2.30;;;;;;;19.56;50.58;97853.38;5044583;28;20473;-26
2024/02/15 10:34:44;;;;;;;2.47;2.27;;;;;;;19.58;50.51;97850.88;5046328;28;20236;-27
2024/02/15 10:37:16;;;;;;;2.50;2.30;;;;;;;19.56;50.56;97842.28;5049741;28;20207;-27
2024/02/15 10:39:43;;;;;;;2.10;2.00;;;;;;;19.49;50.73;97840.31;5048824;28;20238;-29
2024/02/15 10:42:12;;;;;;;2.30;2.10;;;;;;;19.47;50.74;97834.25;5020220;28;20235;-35
2024/02/15 10:44:40;;;;;;;2.60;2.40;;;;;;;19.45;50.94;97833.34;5047566;28;20515;-25
2024/02/15 10:47:08;;;;;;;2.30;2.10;;;;;;;19.46;50.70;97835.06;5037940;28;20743;-27
2024/02/15 10:49:38;;;;;;;5.73;2.60;;;;;;;19.46;49.86;97835.06;5051920;28;20219;-25
2024/02/15 10:52:05;;;;;;;2.30;2.10;;;;;;;19.46;50.36;97835.06;5042546;28;20555;-28
2024/02/15 10:54:34;;;;;;;2.47;2.20;;;;;;;19.49;50.50;97825.00;5046117;28;20671;-27
2024/02/15 10:57:04;;;;;;;2.23;2.03;;;;;;;19.49;50.38;97818.25;5051206;28;20208;-29
2024/02/15 10:59:41;;;;;;;2.17;2.03;;;;;;;19.49;50.60;97812.28;5046964;28;20274;-25
2024/02/15 11:02:30;;;;;;;1.80;1.70;;;;;;;19.53;50.58;97809.03;5041505;28;20240;-26
2024/02/15 11:05:04;;;;;;;2.17;2.03;;;;;;;19.50;50.40;97801.25;5040691;28;20260;-25
2024/02/15 11:07:31;;;;;;;2.40;2.20;;;;;;;19.56;50.49;97804.06;5029772;28;20627;-26
2024/02/15 11:09:58;;;;;;;3.37;1.93;;;;;;;19.56;50.45;97811.69;5028731;28;20216;-30
2024/02/15 11:12:28;;;;;;;2.13;1.90;;;;;;;19.55;50.60;97807.41;5048324;28;20209;-28
2024/02/15 11:14:54;;;;;;;2.40;2.20;;;;;;;19.55;50.55;97807.41;4998070;28;20696;-26
2024/02/15 11:17:48;;;;;;;2.33;2.13;;;;;;;19.56;50.64;97797.28;5047404;28;20293;-33
2024/02/15 11:20:33;;;;;;;2.20;2.00;;;;;;;19.54;50.73;97798.03;5031931;28;20642;-27
2024/02/15 11:23:01;;;;;;;3.83;2.00;;;;;;;19.47;50.78;97791.81;5043215;28;20209;-28
2024/02/15 11:25:31;;;;;;;2.37;2.17;;;;;;;19.46;50.75;97789.19;5046160;28;20322;-26
2024/02/15 11:27:58;;;;;;;2.50;2.30;;;;;;;19.45;50.47;97787.47;5022343;28;20208;-26
2024/02/15 11:30:34;;;;;;;2.53;2.33;;;;;;;19.44;50.86;97781.50;5027006;28;20312;-25
2024/02/15 11:33:01;;;;;;;2.20;2.00;;;;;;;19.45;50.82;97773.03;5041075;28;20717;-25
2024/02/15 11:35:29;;;;;;;3.17;2.17;;;;;;;19.46;50.68;97768.81;5039405;28;20246;-27
2024/02/15 11:38:03;;;;;;;2.23;1.97;;;;;;;19.46;50.66;97766.25;5048854;28;20565;-26
2024/02/15 11:40:41;;;;;;;2.40;2.20;;;;;;;19.46;50.85;97754.41;5044849;28;20228;-26
2024/02/15 11:43:08;;;;;;;1.93;1.83;;;;;;;19.47;50.73;97756.13;5047849;28;20235;-27
2024/02/15 11:45:41;;;;;;;2.20;2.00;;;;;;;19.49;50.63;97748.53;5044504;28;20204;-37
2024/02/15 11:48:11;;;;;;;2.23;2.03;;;;;;;19.50;50.78;97750.28;5044532;28;20762;-26
2024/02/15 11:50:39;;;;;;;2.30;2.10;;;;;;;19.50;50.77;97740.97;5046414;28;20235;-26